Time;durP1;ratioP1;P1;durP2;ratioP2;P2;SDS_P1;SDS_P2;PMS_P1;PMS_P2;Temp;Humidity;BMP_temperature;BMP_pressure;BME280_temperature;BME280_humidity;BME280_pressure;Samples;Min_cycle;Max_cycle;Signal;HPM_P1;HPM_P2
2022/11/04 00:01:04;;;;;;;6.57;4.40;;;8.70;99.90;;;;;;4996647;28;20195;-66
2022/11/04 00:03:33;;;;;;;11.63;4.13;;;8.70;99.90;;;;;;4993752;28;20659;-66
2022/11/04 00:06:01;;;;;;;7.03;4.03;;;8.70;99.90;;;;;;4989646;28;20186;-66
2022/11/04 00:08:30;;;;;;;7.97;3.90;;;8.70;99.90;;;;;;5005113;28;20198;-66
2022/11/04 00:13:47;;;;;;;6.93;3.60;;;8.60;99.90;;;;;;5003376;28;20194;-66
2022/11/04 00:19:02;;;;;;;7.23;3.70;;;8.60;99.90;;;;;;5008160;28;20234;-66
2022/11/04 00:29:46;;;;;;;7.00;3.90;;;8.40;99.90;;;;;;4991084;28;20547;-66
2022/11/04 00:35:01;;;;;;;14.93;3.83;;;8.50;99.90;;;;;;5019517;28;20214;-66
2022/11/04 00:37:29;;;;;;;6.60;3.70;;;8.50;99.90;;;;;;5002657;28;20285;-66
2022/11/04 00:39:57;;;;;;;6.57;3.70;;;8.60;99.90;;;;;;5002680;28;20227;-66
2022/11/04 00:42:26;;;;;;;19.03;3.60;;;8.60;99.90;;;;;;5005366;28;20196;-66
2022/11/04 00:44:54;;;;;;;8.80;3.63;;;8.70;99.90;;;;;;4994653;28;20215;-66
2022/11/04 00:47:24;;;;;;;9.43;3.60;;;8.70;99.90;;;;;;4996107;28;20198;-66
2022/11/04 00:49:53;;;;;;;7.57;3.60;;;8.70;99.90;;;;;;4999524;28;20221;-66
2022/11/04 00:52:21;;;;;;;4.70;3.40;;;8.80;99.90;;;;;;5000700;28;20637;-66
2022/11/04 00:54:50;;;;;;;7.63;3.03;;;8.80;99.90;;;;;;4998023;28;20648;-66
2022/11/04 00:57:18;;;;;;;10.70;3.37;;;8.80;99.90;;;;;;4992519;28;20183;-66
2022/11/04 00:59:46;;;;;;;8.43;3.47;;;8.80;99.90;;;;;;4995496;28;20657;-66
2022/11/04 01:02:15;;;;;;;9.43;3.47;;;8.80;99.90;;;;;;4999907;28;20203;-66
2022/11/04 01:04:47;;;;;;;14.77;3.40;;;8.90;99.90;;;;;;5012034;28;20222;-66
2022/11/04 01:07:15;;;;;;;9.43;3.07;;;8.90;99.90;;;;;;4998614;28;20692;-66
2022/11/04 01:09:43;;;;;;;10.03;2.97;;;8.90;99.90;;;;;;4996624;28;20191;-66
2022/11/04 01:12:11;;;;;;;6.57;3.03;;;8.90;99.90;;;;;;4995744;28;20190;-66
2022/11/04 01:14:39;;;;;;;8.10;3.47;;;9.00;99.90;;;;;;4998238;28;20201;-66
2022/11/04 01:17:07;;;;;;;7.63;2.87;;;9.00;99.90;;;;;;4999598;28;20210;-64
2022/11/04 01:19:36;;;;;;;6.63;3.27;;;9.00;99.90;;;;;;4995077;28;20215;-67
2022/11/04 01:22:06;;;;;;;7.87;3.10;;;9.00;99.90;;;;;;4996213;28;20206;-66
2022/11/04 01:24:35;;;;;;;9.23;3.10;;;9.10;99.90;;;;;;5005813;28;20206;-66
2022/11/04 01:27:03;;;;;;;14.60;3.33;;;9.10;99.90;;;;;;5000697;28;20203;-66
2022/11/04 01:29:31;;;;;;;10.60;2.87;;;9.10;99.90;;;;;;5003459;28;20198;-66
2022/11/04 01:31:59;;;;;;;8.43;3.23;;;9.10;99.90;;;;;;4997376;28;20198;-66
2022/11/04 01:34:28;;;;;;;10.27;3.10;;;9.10;99.90;;;;;;5002045;28;20206;-66
2022/11/04 01:36:56;;;;;;;9.23;3.00;;;9.10;99.90;;;;;;4994415;28;20203;-66
2022/11/04 01:39:25;;;;;;;11.60;3.20;;;9.00;99.90;;;;;;5008322;28;20203;-66
2022/11/04 01:41:54;;;;;;;8.60;3.47;;;9.00;99.90;;;;;;5006929;28;20253;-66
2022/11/04 01:44:51;;;;;;;8.97;3.10;;;9.00;99.90;;;;;;5001690;28;20207;-66
2022/11/04 01:47:22;;;;;;;9.60;3.10;;;8.90;99.90;;;;;;5001944;28;20704;-66
2022/11/04 01:49:54;;;;;;;11.47;3.77;;;9.00;99.90;;;;;;4993827;28;20194;-66
2022/11/04 01:52:28;;;;;;;12.73;3.03;;;8.90;99.90;;;;;;5006523;28;20205;-66
2022/11/04 01:55:01;;;;;;;12.27;3.30;;;8.90;99.90;;;;;;5000517;28;20202;-66
2022/11/04 01:57:34;;;;;;;13.10;3.43;;;8.90;99.90;;;;;;5004661;28;20191;-66
2022/11/04 02:00:07;;;;;;;4.93;2.73;;;8.80;99.90;;;;;;5000470;28;20542;-66
2022/11/04 02:02:40;;;;;;;6.83;2.77;;;8.80;99.90;;;;;;5001997;28;20199;-66
2022/11/04 02:05:11;;;;;;;10.17;3.57;;;8.80;99.90;;;;;;5006153;28;20229;-66
2022/11/04 02:07:39;;;;;;;13.03;3.43;;;8.80;99.90;;;;;;5002039;28;20212;-66
2022/11/04 02:10:10;;;;;;;6.90;2.97;;;8.80;99.90;;;;;;5002900;28;20214;-66
2022/11/04 02:12:50;;;;;;;13.83;3.03;;;8.80;99.90;;;;;;5006131;28;20194;-66
2022/11/04 02:15:22;;;;;;;9.17;2.83;;;8.80;99.90;;;;;;4997399;28;20202;-66
2022/11/04 02:18:04;;;;;;;11.10;2.90;;;8.80;99.90;;;;;;4999850;28;20230;-66
2022/11/04 02:20:59;;;;;;;9.77;3.10;;;8.70;99.90;;;;;;4994818;28;20224;-66
2022/11/04 02:23:55;;;;;;;7.70;2.90;;;8.60;99.90;;;;;;5045249;28;20544;-66
2022/11/04 02:26:59;;;;;;;10.83;2.83;;;8.60;99.90;;;;;;4996310;28;20195;-66
2022/11/04 02:29:47;;;;;;;12.40;3.03;;;8.50;99.90;;;;;;5022716;28;20209;-66
2022/11/04 02:32:21;;;;;;;16.10;2.90;;;8.50;99.90;;;;;;5003274;28;20202;-68
2022/11/04 02:34:58;;;;;;;13.83;3.43;;;8.50;99.90;;;;;;4992544;28;20552;-66
2022/11/04 02:37:35;;;;;;;9.73;2.90;;;8.40;99.90;;;;;;5002368;28;20189;-66
2022/11/04 02:40:14;;;;;;;12.07;3.10;;;8.40;99.90;;;;;;4998100;28;20535;-66
2022/11/04 02:42:50;;;;;;;7.43;3.00;;;8.30;99.90;;;;;;5005391;28;20686;-66
2022/11/04 02:45:22;;;;;;;19.43;3.23;;;8.30;99.90;;;;;;4996832;28;20569;-66
2022/11/04 02:47:55;;;;;;;10.80;3.07;;;8.30;99.90;;;;;;4994820;28;20201;-66
2022/11/04 02:50:29;;;;;;;17.43;3.53;;;8.30;99.90;;;;;;5018199;28;20191;-66
2022/11/04 02:53:02;;;;;;;11.00;3.03;;;8.20;99.90;;;;;;4998161;28;20212;-66
2022/11/04 02:55:35;;;;;;;12.63;3.17;;;8.20;99.90;;;;;;4998824;28;20195;-66
2022/11/04 02:58:09;;;;;;;13.20;3.30;;;8.20;99.90;;;;;;5000433;28;20543;-66
2022/11/04 03:00:42;;;;;;;16.43;3.67;;;8.20;99.90;;;;;;5000680;28;20205;-66
2022/11/04 03:03:14;;;;;;;13.23;3.83;;;8.30;99.90;;;;;;4990930;28;20194;-66
2022/11/04 03:05:47;;;;;;;12.10;3.27;;;8.40;99.90;;;;;;4995661;28;20281;-66
2022/11/04 03:08:20;;;;;;;14.87;3.77;;;8.40;99.90;;;;;;4994711;28;20206;-66
2022/11/04 03:10:53;;;;;;;14.77;3.53;;;8.40;99.90;;;;;;4999123;28;20191;-67
2022/11/04 03:13:26;;;;;;;8.83;3.53;;;8.40;99.90;;;;;;5017727;28;20661;-66
2022/11/04 03:15:59;;;;;;;9.13;3.53;;;8.40;99.90;;;;;;4995950;28;20632;-66
2022/11/04 03:18:36;;;;;;;4.43;3.17;;;8.40;99.90;;;;;;4991647;28;20320;-66
2022/11/04 03:21:09;;;;;;;8.93;3.40;;;8.30;99.90;;;;;;5000226;28;20229;-66
2022/11/04 03:23:37;;;;;;;12.43;3.33;;;8.30;99.90;;;;;;4990688;28;20190;-66
2022/11/04 03:26:12;;;;;;;13.67;3.27;;;8.30;99.90;;;;;;5000796;28;20777;-66
2022/11/04 03:28:46;;;;;;;10.77;3.77;;;8.20;99.90;;;;;;5003952;28;20220;-66
2022/11/04 03:31:23;;;;;;;13.03;3.80;;;8.10;99.90;;;;;;4996486;28;20191;-66
2022/11/04 03:33:55;;;;;;;13.83;3.80;;;8.10;99.90;;;;;;4996345;28;20190;-66
2022/11/04 03:36:23;;;;;;;11.33;3.87;;;8.10;99.90;;;;;;5000413;28;20518;-65
2022/11/04 03:38:53;;;;;;;10.67;3.37;;;8.00;99.90;;;;;;5005855;28;20211;-66
2022/11/04 03:41:29;;;;;;;19.73;4.07;;;8.00;99.90;;;;;;5003751;28;20206;-66
2022/11/04 03:43:58;;;;;;;12.90;3.73;;;8.10;99.90;;;;;;5005048;28;20199;-66
2022/11/04 03:46:28;;;;;;;17.43;4.07;;;8.10;99.90;;;;;;5018327;28;20222;-66
2022/11/04 03:48:57;;;;;;;11.03;3.87;;;8.10;99.90;;;;;;5004916;28;20202;-66
2022/11/04 03:51:26;;;;;;;13.57;4.87;;;8.10;99.90;;;;;;4998551;28;20210;-66
2022/11/04 03:53:55;;;;;;;12.30;4.30;;;8.10;99.90;;;;;;5001283;28;20707;-66
2022/11/04 03:56:48;;;;;;;16.87;4.17;;;8.10;99.90;;;;;;5001136;28;20186;-66
2022/11/04 03:59:32;;;;;;;12.03;4.60;;;8.10;99.90;;;;;;5004586;28;20213;-66
2022/11/04 04:02:09;;;;;;;18.60;4.57;;;8.20;99.90;;;;;;5002620;28;20199;-66
2022/11/04 04:04:41;;;;;;;15.37;4.77;;;8.30;99.90;;;;;;5008452;28;20668;-66
2022/11/04 04:07:15;;;;;;;14.50;4.80;;;8.30;99.90;;;;;;4990675;28;20213;-66
2022/11/04 04:09:48;;;;;;;14.03;4.50;;;8.30;99.90;;;;;;5001889;28;20195;-65
2022/11/04 04:12:26;;;;;;;11.97;5.27;;;8.30;99.90;;;;;;5035281;27;20201;-65
2022/11/04 04:15:02;;;;;;;6.23;4.60;;;8.30;99.90;;;;;;5026684;28;20205;-66
2022/11/04 04:17:37;;;;;;;12.87;5.00;;;8.30;99.90;;;;;;5014202;28;20233;-65
2022/11/04 04:20:10;;;;;;;16.77;5.23;;;8.30;99.90;;;;;;4998353;28;20240;-65
2022/11/04 04:22:44;;;;;;;13.50;5.03;;;8.40;99.90;;;;;;4996093;28;20198;-66
2022/11/04 04:28:01;;;;;;;13.77;5.77;;;8.50;99.90;;;;;;4996504;28;20221;-66
2022/11/04 04:30:30;;;;;;;18.10;5.17;;;8.50;99.90;;;;;;4997685;28;20213;-65
2022/11/04 04:33:05;;;;;;;21.30;5.87;;;8.50;99.90;;;;;;4995221;28;20205;-65
2022/11/04 04:35:43;;;;;;;14.60;5.97;;;8.60;99.90;;;;;;4997504;28;20191;-65
2022/11/04 04:46:43;;;;;;;15.10;6.53;;;8.60;99.90;;;;;;4994151;28;20218;-66
2022/11/04 04:49:12;;;;;;;18.83;6.43;;;8.60;99.90;;;;;;5007270;28;20195;-66
2022/11/04 04:51:44;;;;;;;16.30;6.50;;;8.70;99.90;;;;;;5002710;28;20552;-66
2022/11/04 04:54:13;;;;;;;16.47;6.40;;;8.70;99.90;;;;;;4997840;28;20198;-66
2022/11/04 04:56:42;;;;;;;14.50;6.13;;;8.60;99.90;;;;;;4996396;28;20198;-66
2022/11/04 04:59:10;;;;;;;18.07;7.37;;;8.60;99.90;;;;;;4996358;28;20198;-66
2022/11/04 05:01:38;;;;;;;11.13;6.13;;;8.70;99.90;;;;;;5003096;28;20191;-66
2022/11/04 05:04:07;;;;;;;14.47;6.60;;;8.70;99.90;;;;;;5000655;28;20220;-66
2022/11/04 05:06:36;;;;;;;13.63;7.13;;;8.70;99.90;;;;;;5010643;28;20699;-66
2022/11/04 05:09:05;;;;;;;13.43;6.03;;;8.70;99.90;;;;;;5002951;28;20217;-66
2022/11/04 05:11:33;;;;;;;16.20;7.00;;;8.70;99.90;;;;;;4977264;28;20207;-65
2022/11/04 05:14:02;;;;;;;22.03;7.47;;;8.70;99.90;;;;;;4998099;28;20701;-66
2022/11/04 05:16:30;;;;;;;16.23;6.90;;;8.70;99.90;;;;;;5009671;28;20198;-66
2022/11/04 05:19:03;;;;;;;20.53;7.27;;;8.70;99.90;;;;;;5029807;28;20230;-66
2022/11/04 05:21:31;;;;;;;19.40;8.13;;;8.70;99.90;;;;;;5000318;28;20215;-66
2022/11/04 05:24:01;;;;;;;21.23;7.40;;;8.70;99.90;;;;;;4997978;28;20195;-66
2022/11/04 05:26:29;;;;;;;14.47;7.10;;;8.80;99.90;;;;;;4998915;28;20230;-66
2022/11/04 05:28:57;;;;;;;17.37;7.57;;;8.80;99.90;;;;;;5000402;28;20986;-65
2022/11/04 05:31:26;;;;;;;19.37;7.70;;;8.80;99.90;;;;;;5000125;28;20695;-66
2022/11/04 05:33:55;;;;;;;23.67;8.10;;;8.80;99.90;;;;;;5004164;28;20522;-65
2022/11/04 05:36:23;;;;;;;16.40;8.07;;;8.80;99.90;;;;;;4995625;28;20228;-65
2022/11/04 05:38:54;;;;;;;15.70;7.53;;;8.80;99.90;;;;;;5013316;28;20198;-65
2022/11/04 05:41:27;;;;;;;17.70;8.07;;;8.80;99.90;;;;;;4999848;28;20199;-66
2022/11/04 05:43:56;;;;;;;16.10;8.57;;;8.90;99.90;;;;;;4999278;28;20191;-66
2022/11/04 05:46:25;;;;;;;16.33;7.90;;;8.90;99.90;;;;;;5004266;28;20225;-66
2022/11/04 05:48:54;;;;;;;21.10;8.80;;;8.90;99.90;;;;;;5006180;28;20201;-66
2022/11/04 05:51:23;;;;;;;16.83;8.47;;;8.90;99.90;;;;;;4997668;28;20202;-66
2022/11/04 05:53:52;;;;;;;28.87;10.00;;;8.90;99.90;;;;;;5009492;28;20662;-66
2022/11/04 05:56:21;;;;;;;21.83;10.13;;;9.00;99.90;;;;;;4998762;28;20199;-66
2022/11/04 05:58:50;;;;;;;20.80;8.80;;;9.00;99.90;;;;;;4994799;28;20202;-66
2022/11/04 06:01:30;;;;;;;23.47;9.00;;;9.00;99.90;;;;;;4995608;28;20278;-66
2022/11/04 06:04:00;;;;;;;24.93;9.30;;;9.00;99.90;;;;;;4999611;28;20285;-66
2022/11/04 06:06:30;;;;;;;20.90;9.13;;;9.00;99.90;;;;;;5011476;28;20210;-65
2022/11/04 06:08:58;;;;;;;18.77;8.43;;;9.00;99.90;;;;;;5009962;28;20683;-66
2022/11/04 06:11:29;;;;;;;27.23;8.97;;;9.00;99.90;;;;;;4992516;28;20549;-66
2022/11/04 06:13:59;;;;;;;16.77;8.23;;;9.00;99.90;;;;;;4995720;28;20201;-66
2022/11/04 06:16:28;;;;;;;21.40;8.50;;;9.00;99.90;;;;;;4994543;28;20193;-66
2022/11/04 06:18:56;;;;;;;19.37;8.47;;;9.00;99.90;;;;;;5000925;28;20242;-66
2022/11/04 06:21:33;;;;;;;22.70;9.07;;;9.00;99.90;;;;;;4995869;28;20288;-65
2022/11/04 06:24:02;;;;;;;16.00;7.97;;;9.00;99.90;;;;;;4997855;28;20199;-65
2022/11/04 06:26:30;;;;;;;14.40;7.63;;;9.00;99.90;;;;;;4998007;28;20227;-66
2022/11/04 06:29:00;;;;;;;23.27;8.33;;;9.00;99.90;;;;;;5007990;28;20520;-66
2022/11/04 06:31:28;;;;;;;18.30;7.97;;;9.00;99.90;;;;;;5004903;28;20566;-66
2022/11/04 06:33:56;;;;;;;19.17;7.90;;;9.00;99.90;;;;;;4999946;28;20605;-66
2022/11/04 06:36:25;;;;;;;17.47;7.50;;;9.00;99.90;;;;;;5001359;28;20186;-66
2022/11/04 06:38:53;;;;;;;17.50;8.13;;;9.00;99.90;;;;;;4988005;28;20221;-66
2022/11/04 06:41:28;;;;;;;18.47;8.13;;;9.00;99.90;;;;;;4999661;28;20218;-66
2022/11/04 06:43:56;;;;;;;19.60;8.07;;;9.00;99.90;;;;;;5000528;28;20202;-66
2022/11/04 06:46:28;;;;;;;18.97;7.60;;;8.90;99.90;;;;;;5001130;28;20217;-66
2022/11/04 06:48:57;;;;;;;18.97;7.50;;;8.90;99.90;;;;;;5001299;28;20211;-66
2022/11/04 06:51:25;;;;;;;16.53;7.43;;;8.90;99.90;;;;;;4996896;28;20198;-66
2022/11/04 06:53:54;;;;;;;18.63;7.60;;;8.90;99.90;;;;;;5003339;28;20324;-66
2022/11/04 06:56:23;;;;;;;16.87;8.27;;;8.90;99.90;;;;;;4988149;28;20243;-66
2022/11/04 06:58:52;;;;;;;15.80;7.57;;;8.90;99.90;;;;;;5024662;28;20258;-66
2022/11/04 07:01:22;;;;;;;24.50;9.80;;;8.90;99.90;;;;;;4997220;28;20292;-66
2022/11/04 07:03:54;;;;;;;29.67;12.27;;;8.90;99.90;;;;;;5026765;28;20405;-66
2022/11/04 07:06:23;;;;;;;85.30;38.33;;;8.90;99.90;;;;;;5006898;28;20238;-66
2022/11/04 07:08:53;;;;;;;72.53;35.23;;;9.00;99.90;;;;;;4999884;28;20207;-66
2022/11/04 07:11:23;;;;;;;61.33;30.90;;;9.00;99.90;;;;;;5009240;28;20564;-66
2022/11/04 07:13:52;;;;;;;51.07;26.77;;;9.00;99.90;;;;;;5000604;28;20206;-66
2022/11/04 07:16:20;;;;;;;40.00;23.97;;;9.10;99.90;;;;;;5009951;28;20191;-66
2022/11/04 07:18:50;;;;;;;28.20;15.80;;;9.20;99.90;;;;;;5004792;28;20324;-66
2022/11/04 07:21:20;;;;;;;29.17;14.63;;;9.20;99.90;;;;;;4995529;28;20550;-66
2022/11/04 07:23:48;;;;;;;23.47;12.60;;;9.30;99.90;;;;;;4990530;28;20203;-66
2022/11/04 07:26:16;;;;;;;24.70;11.00;;;9.40;99.90;;;;;;4987546;28;20203;-66
2022/11/04 07:28:45;;;;;;;16.73;10.33;;;9.50;99.90;;;;;;4993487;28;20198;-66
2022/11/04 07:31:14;;;;;;;21.07;10.60;;;9.60;99.90;;;;;;4988817;28;20198;-66
2022/11/04 07:33:42;;;;;;;22.27;10.63;;;9.60;99.90;;;;;;4985275;28;20194;-66
2022/11/04 07:36:12;;;;;;;15.20;10.03;;;9.70;99.90;;;;;;4988053;28;20205;-66
2022/11/04 07:38:42;;;;;;;22.90;10.53;;;9.70;99.90;;;;;;4995307;28;20274;-66
2022/11/04 07:41:11;;;;;;;25.00;11.10;;;9.80;99.90;;;;;;4988260;28;20330;-66
2022/11/04 07:43:39;;;;;;;20.37;10.13;;;9.70;99.90;;;;;;4987086;28;20649;-66
2022/11/04 07:46:10;;;;;;;21.90;9.83;;;9.70;99.90;;;;;;4988397;28;20205;-66
2022/11/04 07:48:39;;;;;;;21.13;9.40;;;9.80;99.90;;;;;;4979675;28;20195;-66
2022/11/04 07:51:11;;;;;;;23.90;9.37;;;9.90;99.90;;;;;;4978289;28;20198;-66
2022/11/04 07:53:39;;;;;;;15.43;9.10;;;9.90;99.90;;;;;;4980878;28;20199;-66
2022/11/04 07:56:12;;;;;;;19.83;9.43;;;10.00;99.90;;;;;;4988445;28;20248;-66
2022/11/04 07:58:41;;;;;;;20.97;9.27;;;10.00;99.90;;;;;;4995576;28;20206;-66
2022/11/04 08:01:12;;;;;;;22.20;8.97;;;10.10;99.90;;;;;;4986934;28;20283;-66
2022/11/04 08:03:40;;;;;;;19.73;9.37;;;10.10;99.90;;;;;;4986564;28;20205;-66
2022/11/04 08:06:11;;;;;;;23.87;8.60;;;10.20;99.90;;;;;;4996616;28;20190;-66
2022/11/04 08:08:39;;;;;;;20.70;8.90;;;10.30;99.90;;;;;;5000916;28;20229;-66
2022/11/04 08:11:11;;;;;;;15.23;8.77;;;10.40;99.90;;;;;;4990007;28;20191;-66
2022/11/04 08:13:46;;;;;;;23.07;9.90;;;10.40;99.90;;;;;;4994709;28;20202;-66
2022/11/04 08:16:16;;;;;;;18.20;8.77;;;10.50;99.90;;;;;;4995538;28;20219;-65
2022/11/04 08:18:47;;;;;;;21.70;9.60;;;10.60;99.90;;;;;;4993214;28;20721;-65
2022/11/04 08:21:16;;;;;;;21.70;8.60;;;10.60;99.90;;;;;;5057983;28;20210;-65
2022/11/04 08:23:45;;;;;;;16.23;7.67;;;10.70;99.90;;;;;;5001228;28;20205;-66
2022/11/04 08:26:17;;;;;;;20.43;7.90;;;10.60;99.90;;;;;;4995142;28;20671;-65
2022/11/04 08:28:46;;;;;;;24.87;8.77;;;10.50;99.90;;;;;;5000436;28;20306;-64
2022/11/04 08:31:16;;;;;;;17.87;8.30;;;10.50;99.90;;;;;;4995895;28;20191;-64
2022/11/04 08:33:45;;;;;;;18.60;8.07;;;10.60;99.90;;;;;;4989309;28;20195;-64
2022/11/04 08:36:16;;;;;;;16.83;7.57;;;10.70;99.90;;;;;;5001769;28;20203;-64
2022/11/04 08:38:45;;;;;;;17.03;6.83;;;10.70;99.90;;;;;;5008596;28;20213;-64
2022/11/04 08:41:18;;;;;;;21.80;7.10;;;10.70;99.90;;;;;;4985682;28;20237;-64
2022/11/04 08:43:48;;;;;;;24.10;7.80;;;10.80;99.90;;;;;;5002867;28;20202;-64
2022/11/04 08:46:17;;;;;;;19.87;6.50;;;10.90;99.90;;;;;;5004711;28;20202;-64
2022/11/04 08:48:45;;;;;;;17.63;6.70;;;10.90;99.90;;;;;;4994009;28;20697;-64
2022/11/04 08:51:16;;;;;;;12.00;6.83;;;11.00;99.90;;;;;;5073704;28;20199;-64
2022/11/04 08:53:45;;;;;;;20.67;6.17;;;11.00;99.90;;;;;;4997710;28;20213;-64
2022/11/04 08:56:17;;;;;;;13.50;6.03;;;11.20;99.90;;;;;;4998118;28;20207;-64
2022/11/04 08:58:46;;;;;;;18.70;6.23;;;11.20;99.90;;;;;;5002984;28;20199;-64
2022/11/04 09:01:15;;;;;;;14.63;5.87;;;11.30;99.90;;;;;;5020507;28;20556;-64
2022/11/04 09:03:43;;;;;;;12.60;5.70;;;11.30;99.90;;;;;;5000555;28;20217;-64
2022/11/04 09:06:15;;;;;;;18.20;5.90;;;11.30;99.90;;;;;;4995868;28;20195;-64
2022/11/04 09:08:43;;;;;;;15.30;5.73;;;11.30;99.90;;;;;;5000171;28;20218;-64
2022/11/04 09:11:15;;;;;;;12.17;5.43;;;11.30;99.90;;;;;;5003220;28;20588;-64
2022/11/04 09:13:44;;;;;;;16.67;6.20;;;11.40;99.90;;;;;;4998400;28;20203;-64
2022/11/04 09:16:14;;;;;;;13.67;5.10;;;11.40;99.90;;;;;;4998557;28;20206;-64
2022/11/04 09:18:42;;;;;;;18.07;5.87;;;11.40;99.90;;;;;;4999859;28;20618;-64
2022/11/04 09:21:11;;;;;;;14.07;5.40;;;11.40;99.90;;;;;;5006121;28;20222;-64
2022/11/04 09:23:39;;;;;;;17.90;5.80;;;11.50;99.90;;;;;;4995778;28;20199;-64
2022/11/04 09:26:10;;;;;;;13.90;5.53;;;11.60;99.90;;;;;;5026524;28;20610;-64
2022/11/04 09:28:41;;;;;;;15.07;5.43;;;11.60;99.90;;;;;;5024347;28;20759;-64
2022/11/04 09:31:17;;;;;;;14.63;5.53;;;11.60;99.90;;;;;;5002540;28;20671;-64
2022/11/04 09:33:46;;;;;;;13.27;5.70;;;11.60;99.90;;;;;;4992071;28;20199;-64
2022/11/04 09:36:14;;;;;;;12.97;5.50;;;11.50;99.90;;;;;;4995545;28;20200;-64
2022/11/04 09:38:43;;;;;;;12.87;5.93;;;11.40;99.90;;;;;;4992837;28;20195;-64
2022/11/04 09:41:38;;;;;;;13.00;5.53;;;11.40;99.90;;;;;;5009109;28;20238;-64
2022/11/04 09:44:19;;;;;;;10.77;5.67;;;11.40;99.90;;;;;;5004910;28;20225;-64
2022/11/04 09:46:49;;;;;;;18.00;6.53;;;11.40;99.90;;;;;;5009181;28;20198;-64
2022/11/04 09:49:17;;;;;;;11.87;5.93;;;11.40;99.90;;;;;;5007806;28;20221;-64
2022/11/04 09:51:48;;;;;;;14.77;5.63;;;11.40;99.90;;;;;;5033834;28;20199;-64
2022/11/04 09:54:24;;;;;;;16.20;6.13;;;11.40;99.90;;;;;;5009803;28;20201;-64
2022/11/04 09:56:55;;;;;;;13.30;5.83;;;11.40;99.90;;;;;;5012167;28;20206;-64
2022/11/04 09:59:29;;;;;;;18.60;6.10;;;11.50;99.90;;;;;;5012508;28;20199;-64
2022/11/04 10:02:24;;;;;;;16.80;5.80;;;11.50;99.90;;;;;;5011964;28;20197;-64
2022/11/04 10:05:03;;;;;;;19.00;6.57;;;11.60;99.90;;;;;;5001004;28;20207;-64
2022/11/04 10:07:44;;;;;;;11.40;6.20;;;11.70;99.90;;;;;;4998937;28;20280;-64
2022/11/04 10:10:19;;;;;;;14.63;7.20;;;11.70;99.90;;;;;;5009789;28;20198;-64
2022/11/04 10:13:03;;;;;;;14.77;6.60;;;11.60;99.90;;;;;;5007263;28;20640;-64
2022/11/04 10:16:01;;;;;;;26.33;7.57;;;11.60;99.90;;;;;;5012135;28;20532;-64
2022/11/04 10:18:56;;;;;;;16.33;7.93;;;11.60;99.90;;;;;;5004968;28;20226;-64
2022/11/04 10:21:35;;;;;;;19.43;8.50;;;11.50;99.90;;;;;;5001225;28;20245;-64
2022/11/04 10:24:14;;;;;;;19.20;11.00;;;11.50;99.90;;;;;;4992412;28;20209;-64
2022/11/04 10:26:45;;;;;;;18.17;11.47;;;11.40;99.90;;;;;;5008071;28;20670;-64
2022/11/04 10:29:25;;;;;;;20.07;11.57;;;11.40;99.90;;;;;;5012103;28;20207;-64
2022/11/04 10:31:58;;;;;;;26.13;11.43;;;11.40;99.90;;;;;;5005604;28;20207;-64
2022/11/04 10:34:36;;;;;;;20.77;11.53;;;11.40;99.90;;;;;;4992583;28;20581;-64
2022/11/04 10:37:10;;;;;;;20.77;11.83;;;11.50;99.90;;;;;;5009060;28;20801;-64
2022/11/04 10:39:43;;;;;;;27.17;13.07;;;11.50;99.90;;;;;;5010354;28;20194;-64
2022/11/04 10:42:15;;;;;;;20.60;12.40;;;11.60;99.90;;;;;;5005057;28;20199;-64
2022/11/04 10:44:45;;;;;;;24.53;13.23;;;11.60;99.90;;;;;;5003379;28;20191;-64
2022/11/04 10:47:26;;;;;;;21.43;12.67;;;11.60;99.90;;;;;;4991853;28;20216;-64
2022/11/04 10:50:17;;;;;;;21.37;13.23;;;11.70;99.90;;;;;;5005458;28;20225;-64
2022/11/04 10:53:15;;;;;;;22.77;13.57;;;11.80;99.90;;;;;;4997584;28;20205;-64
2022/11/04 10:55:50;;;;;;;23.17;13.47;;;11.80;99.90;;;;;;5009460;28;20195;-64
2022/11/04 10:58:23;;;;;;;20.27;12.90;;;11.90;99.90;;;;;;4990595;28;20648;-64
2022/11/04 11:00:54;;;;;;;25.53;13.00;;;12.00;99.90;;;;;;5005037;28;20202;-64
2022/11/04 11:03:29;;;;;;;21.20;12.53;;;12.10;99.90;;;;;;4992702;28;20550;-64
2022/11/04 11:06:19;;;;;;;23.43;12.47;;;12.20;99.90;;;;;;5025505;28;20289;-64
2022/11/04 11:08:48;;;;;;;17.17;11.70;;;12.40;99.90;;;;;;4991872;28;20246;-64
2022/11/04 11:11:23;;;;;;;17.37;11.03;;;12.50;99.90;;;;;;4998462;28;20205;-64
2022/11/04 11:13:52;;;;;;;17.70;10.93;;;12.60;99.90;;;;;;5006172;28;20204;-64
2022/11/04 11:16:25;;;;;;;18.67;11.33;;;12.70;99.90;;;;;;4995218;28;20195;-64
2022/11/04 11:19:13;;;;;;;20.23;11.40;;;12.70;99.90;;;;;;5006106;28;20226;-64
2022/11/04 11:21:46;;;;;;;17.30;11.57;;;12.80;99.90;;;;;;5007769;28;20206;-64
2022/11/04 11:24:19;;;;;;;20.97;11.87;;;12.70;99.90;;;;;;5012160;28;20653;-64
2022/11/04 11:26:51;;;;;;;17.63;10.87;;;12.70;99.90;;;;;;5003228;28;20205;-64
2022/11/04 11:29:24;;;;;;;16.97;10.93;;;12.60;99.90;;;;;;5007159;28;20695;-64
2022/11/04 11:31:53;;;;;;;18.43;11.50;;;12.50;99.90;;;;;;4997660;28;20543;-64
2022/11/04 11:34:26;;;;;;;19.40;11.27;;;12.50;99.90;;;;;;5000746;28;20213;-64
2022/11/04 11:36:56;;;;;;;17.00;11.20;;;12.50;99.90;;;;;;5004955;28;20230;-64
2022/11/04 11:39:27;;;;;;;17.27;11.13;;;12.40;99.90;;;;;;5022176;28;20590;-64
2022/11/04 11:41:59;;;;;;;19.30;10.93;;;12.40;99.90;;;;;;4995945;28;20199;-64
2022/11/04 11:44:31;;;;;;;19.60;11.20;;;12.40;99.90;;;;;;5000348;28;20192;-64
2022/11/04 11:47:02;;;;;;;18.40;10.37;;;12.40;99.90;;;;;;4996597;28;20282;-64
2022/11/04 11:49:34;;;;;;;16.40;11.17;;;12.40;99.90;;;;;;4999821;28;20237;-64
2022/11/04 11:52:35;;;;;;;23.00;10.73;;;12.40;99.90;;;;;;5034064;28;20203;-64
2022/11/04 11:55:07;;;;;;;19.13;11.03;;;12.50;99.90;;;;;;5068136;28;20208;-64
2022/11/04 11:57:48;;;;;;;19.63;11.43;;;12.50;99.90;;;;;;5010298;28;20634;-64
2022/11/04 12:00:45;;;;;;;23.50;11.93;;;12.50;99.90;;;;;;5003373;28;20240;-64
2022/11/04 12:03:25;;;;;;;18.80;11.07;;;12.60;99.90;;;;;;5043201;28;20221;-64
2022/11/04 12:06:13;;;;;;;17.57;10.20;;;12.60;99.90;;;;;;4997478;28;20202;-64
2022/11/04 12:09:26;;;;;;;19.23;11.23;;;12.60;99.90;;;;;;5022825;27;20214;-64
2022/11/04 12:12:10;;;;;;;20.20;11.20;;;12.80;99.90;;;;;;4993432;28;20198;-64
2022/11/04 12:14:50;;;;;;;16.63;11.80;;;13.00;99.90;;;;;;4998466;28;20771;-64
2022/11/04 12:17:33;;;;;;;18.93;11.07;;;13.30;99.90;;;;;;5001154;28;20663;-65
2022/11/04 12:20:18;;;;;;;20.60;10.77;;;13.60;99.90;;;;;;4999756;28;20219;-64
2022/11/04 12:22:55;;;;;;;20.73;10.50;;;13.70;99.90;;;;;;4996484;28;20206;-64
2022/11/04 12:25:29;;;;;;;15.10;9.43;;;13.80;99.90;;;;;;5008335;28;20198;-64
2022/11/04 12:28:08;;;;;;;15.17;9.37;;;13.70;99.90;;;;;;5005435;28;20574;-64
2022/11/04 12:30:48;;;;;;;16.20;9.67;;;13.80;99.90;;;;;;4997434;28;20207;-64
2022/11/04 12:33:26;;;;;;;14.23;9.03;;;13.60;99.90;;;;;;4994219;28;20202;-64
2022/11/04 12:36:05;;;;;;;14.47;9.50;;;13.50;99.90;;;;;;4999847;28;20250;-64
2022/11/04 12:38:55;;;;;;;15.17;10.93;;;13.40;99.90;;;;;;4995075;28;20191;-64
2022/11/04 12:41:34;;;;;;;13.00;8.47;;;13.40;99.90;;;;;;4999539;28;20775;-64
2022/11/04 12:44:32;;;;;;;13.70;8.60;;;13.30;99.90;;;;;;5002515;28;20197;-64
2022/11/04 12:47:14;;;;;;;13.00;6.80;;;13.30;99.90;;;;;;4997797;28;20295;-64
2022/11/04 12:50:06;;;;;;;11.80;6.27;;;13.30;99.90;;;;;;4989812;28;20590;-64
2022/11/04 12:52:56;;;;;;;9.40;6.20;;;13.20;99.90;;;;;;4998410;28;20202;-64
2022/11/04 12:55:35;;;;;;;11.03;6.30;;;13.30;99.90;;;;;;4999347;28;20252;-64
2022/11/04 12:58:28;;;;;;;10.73;5.70;;;13.40;99.90;;;;;;5003416;28;20206;-64
2022/11/04 13:01:02;;;;;;;9.83;6.10;;;13.50;99.90;;;;;;5005502;28;20255;-64
2022/11/04 13:03:36;;;;;;;9.90;6.57;;;13.50;99.90;;;;;;5000213;28;20194;-64
2022/11/04 13:06:10;;;;;;;13.20;6.77;;;13.60;99.90;;;;;;5003074;28;20198;-64
2022/11/04 13:08:43;;;;;;;13.93;8.67;;;13.90;99.90;;;;;;5006200;28;20183;-64
2022/11/04 13:11:24;;;;;;;15.20;8.93;;;14.10;99.90;;;;;;4994725;28;20345;-64
2022/11/04 13:13:59;;;;;;;12.13;7.90;;;14.30;99.90;;;;;;5009111;28;20598;-64
2022/11/04 13:16:31;;;;;;;11.20;7.90;;;14.50;99.90;;;;;;5010190;28;20203;-64
2022/11/04 13:19:00;;;;;;;13.77;8.07;;;14.70;99.90;;;;;;5003569;28;20254;-64
2022/11/04 13:21:35;;;;;;;10.33;6.87;;;14.70;99.90;;;;;;5003404;28;20222;-64
2022/11/04 13:24:06;;;;;;;10.37;6.07;;;14.60;99.90;;;;;;5008226;28;20202;-64
2022/11/04 13:26:36;;;;;;;6.57;5.40;;;14.40;99.90;;;;;;4995365;28;20207;-64
2022/11/04 13:29:11;;;;;;;8.57;5.63;;;14.20;99.90;;;;;;5000764;28;20661;-64
2022/11/04 13:31:48;;;;;;;12.50;5.67;;;14.10;99.90;;;;;;5007336;28;20209;-64
2022/11/04 13:34:31;;;;;;;12.13;5.93;;;14.00;99.90;;;;;;4998684;28;20653;-64
2022/11/04 13:37:10;;;;;;;5.70;5.10;;;14.00;99.90;;;;;;5001495;28;20207;-64
2022/11/04 13:39:42;;;;;;;6.17;5.50;;;14.00;99.90;;;;;;5000772;28;20533;-64
2022/11/04 13:42:32;;;;;;;2.80;2.00;;;13.90;99.90;;;;;;5001301;28;20637;-64